15 Dec 2019 18:53 UTC 2019349+18:53 UTC

Overview Datums Bench Marks Data Query Site Visit Daily QC Messages Attributes

170: National Park Service - Baffin Bay

27° 17' 49" N   97° 24' 17" W
NPSBB
United States National Park Service United States National Park Service

Station Information

National Park Service - Baffin Bay
National Park Service - Baffin Bay
more pictures
 
Station Name:National Park Service - Baffin Bay
DNR ID:170
Location:27° 17' 49" N, 97° 24' 17" W

Water Level Forecasts

Latest Observations

Series Metric English Marine Observed at
Water Temperature 15.3 °C 59.5 °F 59.5 °F Dec 15 12:30 CST
00h18m ago
Salinity 39.600 psu 39.600 psu 39.600 psu Dec 15 12:30 CST
00h18m ago
pH 8.15 pH 8.15 pH 8.15 pH Dec 15 12:30 CST
00h18m ago
Turbidity 53 ntu 53 ntu 53 ntu Dec 15 12:30 CST
00h18m ago
Dissolved Oxygen 7.81 mg/L 0.000488 lb/ft3 0.000488 lb/ft3 Dec 15 12:30 CST
00h18m ago

Maps

National Park Service - Baffin Bay
All Stations in Area
Entire Network
 

Recent Observations

Date/Time Water
Temp (°F)
Sal (psu) pH (pH) Turb (ntu) DO (lb/ft3)
Dec 15 12:00 CST 58.1 40.600 8.21 17 0.000585
Dec 15 11:00 CST 63.9 36.800 8.13 21 0.000455
Dec 15 10:00 CST 63.0 36.800 8.09 20 0.000416
Dec 15 09:00 CST 62.2 36.400 8.08 32 0.000408
Dec 15 08:00 CST 61.9 36.600 8.08 37 0.000411
Dec 15 07:00 CST 61.9 36.300 8.08 46 0.000423
Dec 15 06:00 CST 61.7 36.500 8.12 16 0.000452
Dec 15 05:00 CST 62.2 36.100 8.07 20 0.000413
Dec 15 04:00 CST 62.4 35.800 8.05 22 0.000405
Dec 15 03:00 CST 62.4 35.700 8.06 25 0.000410
Dec 15 02:00 CST 62.4 35.600 8.06 28 0.000420
Dec 15 01:00 CST 62.6 35.300 8.06 25 0.000422
Dec 15 00:00 CST 62.6 35.200 8.06 22 0.000434
Dec 14 23:00 CST 62.8 34.900 8.06 25 0.000434
Dec 14 22:00 CST 63.0 34.800 8.06 25 0.000442
Dec 14 21:00 CST 62.4 35.000 8.09 39 0.000473
Dec 14 20:00 CST 63.7 34.300 8.09 24 0.000465
Dec 14 19:00 CST 64.0 34.100 8.12 16 0.000495
Dec 14 18:00 CST 64.8 34.100 8.17 14 0.000551
Dec 14 17:00 CST 65.8 34.200 8.22 14 0.000594
Dec 14 16:00 CST 64.4 35.500 8.24 17 0.000656
Dec 14 15:00 CST 62.4 34.300 8.12 16 0.000536
Dec 14 14:00 CST 62.2 34.700 8.13 22 0.000547
Dec 14 13:00 CST 62.6 34.400 8.13 21 0.000544
Dec 14 12:00 CST 59.5 35.400 8.08 18 0.000509

Historical Data Availability